Time,TemperatureF,DewpointF,PressureIn,WindDirection,WindDirectionDegrees,WindSpeedMPH,WindSpeedGustMPH,Humidity,HourlyPrecipIn,Conditions,Clouds,dailyrainin,SolarRadiationWatts/m^2,SoftwareType,DateUTC
2013-11-30 00:01:00,16.0,9.0,-100.00,WNW,303,3.0,8.0,74,0.00,,,0.00,0.000000,,2013-11-30 07:01:00,
2013-11-30 00:42:00,15.0,9.0,-100.00,NW,310,4.0,6.0,77,0.00,,,0.00,0.000000,,2013-11-30 07:42:00,
2013-11-30 00:52:00,15.0,9.0,-100.00,NW,310,4.0,6.0,77,0.00,,,0.00,0.000000,,2013-11-30 07:52:00,
2013-11-30 01:01:00,15.0,9.0,-100.00,NW,310,4.0,6.0,77,0.00,,,0.00,0.000000,,2013-11-30 08:01:00,
2013-11-30 01:42:00,12.0,8.0,-100.00,WNW,295,1.0,6.0,82,0.00,,,0.00,0.000000,,2013-11-30 08:42:00,
2013-11-30 01:52:00,12.0,8.0,-100.00,WNW,295,1.0,6.0,82,0.00,,,0.00,0.000000,,2013-11-30 08:52:00,
2013-11-30 02:02:00,12.0,8.0,-100.00,WNW,295,1.0,6.0,82,0.00,,,0.00,0.000000,,2013-11-30 09:02:00,
2013-11-30 02:43:00,12.0,7.0,-100.00,NW,326,2.0,5.0,79,0.00,,,0.00,0.000000,,2013-11-30 09:43:00,
2013-11-30 02:54:00,12.0,7.0,-100.00,NW,326,2.0,5.0,79,0.00,,,0.00,0.000000,,2013-11-30 09:54:00,
2013-11-30 03:03:00,12.0,7.0,-100.00,NW,326,2.0,5.0,79,0.00,,,0.00,0.000000,,2013-11-30 10:03:00,
2013-11-30 03:42:00,14.0,7.0,-100.00,NW,321,3.0,8.0,72,0.00,,,0.00,0.000000,,2013-11-30 10:42:00,
2013-11-30 03:53:00,14.0,7.0,-100.00,NW,321,3.0,8.0,72,0.00,,,0.00,0.000000,,2013-11-30 10:53:00,
2013-11-30 04:02:00,14.0,7.0,-100.00,NW,321,3.0,8.0,72,0.00,,,0.00,0.000000,,2013-11-30 11:02:00,
2013-11-30 04:42:00,15.0,6.0,-100.00,NW,307,5.0,8.0,68,0.00,,,0.00,0.000000,,2013-11-30 11:42:00,
2013-11-30 04:52:00,15.0,6.0,-100.00,NW,307,5.0,8.0,68,0.00,,,0.00,0.000000,,2013-11-30 11:52:00,
2013-11-30 05:02:00,15.0,6.0,-100.00,NW,307,5.0,8.0,68,0.00,,,0.00,0.000000,,2013-11-30 12:02:00,
2013-11-30 05:42:00,14.0,4.0,-100.00,NNW,332,5.0,8.0,64,0.00,,,0.00,0.000000,,2013-11-30 12:42:00,
2013-11-30 05:52:00,14.0,4.0,-100.00,NNW,332,5.0,8.0,64,0.00,,,0.00,0.000000,,2013-11-30 12:52:00,
2013-11-30 06:01:00,14.0,4.0,-100.00,NNW,332,5.0,8.0,64,0.00,,,0.00,0.000000,,2013-11-30 13:01:00,
2013-11-30 06:42:00,13.0,5.0,-100.00,NNW,329,4.0,8.0,70,0.00,,,0.00,0.000000,,2013-11-30 13:42:00,
2013-11-30 06:52:00,13.0,5.0,-100.00,NNW,329,4.0,8.0,70,0.00,,,0.00,0.000000,,2013-11-30 13:52:00,
2013-11-30 07:01:00,13.0,5.0,-100.00,NNW,329,4.0,8.0,70,0.00,,,0.00,0.000000,,2013-11-30 14:01:00,
2013-11-30 07:42:00,13.0,5.0,-100.00,NW,324,4.0,8.0,70,0.00,,,0.00,1.000000,,2013-11-30 14:42:00,
2013-11-30 07:53:00,13.0,5.0,-100.00,NW,324,4.0,8.0,70,0.00,,,0.00,1.000000,,2013-11-30 14:53:00,
2013-11-30 08:02:00,13.0,5.0,-100.00,NW,324,4.0,8.0,70,0.00,,,0.00,1.000000,,2013-11-30 15:02:00,
2013-11-30 08:43:00,19.0,6.0,-100.00,NNW,341,5.0,9.0,56,0.00,,,0.00,82.000000,,2013-11-30 15:43:00,
2013-11-30 08:54:00,19.0,6.0,-100.00,NNW,341,5.0,9.0,56,0.00,,,0.00,82.000000,,2013-11-30 15:54:00,
2013-11-30 09:03:00,19.0,6.0,-100.00,NNW,341,5.0,9.0,56,0.00,,,0.00,82.000000,,2013-11-30 16:03:00,
2013-11-30 09:43:00,27.0,6.0,-100.00,NNE,19,3.0,7.0,41,0.00,,,0.00,285.000000,,2013-11-30 16:43:00,
2013-11-30 09:53:00,27.0,6.0,-100.00,NNE,19,3.0,7.0,41,0.00,,,0.00,285.000000,,2013-11-30 16:53:00,
2013-11-30 10:02:00,27.0,6.0,-100.00,NNE,19,3.0,7.0,41,0.00,,,0.00,285.000000,,2013-11-30 17:02:00,
2013-11-30 10:42:00,35.0,7.0,-100.00,NNW,333,3.0,7.0,30,0.00,,,0.00,456.000000,,2013-11-30 17:42:00,
2013-11-30 10:53:00,35.0,7.0,-100.00,NNW,333,3.0,7.0,30,0.00,,,0.00,456.000000,,2013-11-30 17:53:00,
2013-11-30 11:01:00,35.0,7.0,-100.00,NNW,333,3.0,7.0,30,0.00,,,0.00,456.000000,,2013-11-30 18:01:00,
2013-11-30 11:42:00,37.0,4.0,-100.00,NE,35,5.0,9.0,25,0.00,,,-99.99,578.000000,,2013-11-30 18:42:00,
2013-11-30 11:52:00,37.0,4.0,-100.00,NE,35,5.0,9.0,25,0.00,,,-99.99,578.000000,,2013-11-30 18:52:00,
2013-11-30 12:01:00,37.0,4.0,-100.00,NE,35,5.0,9.0,25,0.00,,,-99.99,578.000000,,2013-11-30 19:01:00,
2013-11-30 12:42:00,39.0,3.0,-100.00,NNE,23,6.0,12.0,22,0.00,,,0.00,634.000000,,2013-11-30 19:42:00,
2013-11-30 12:52:00,39.0,3.0,-100.00,NNE,23,6.0,12.0,22,0.00,,,0.00,634.000000,,2013-11-30 19:52:00,
2013-11-30 13:02:00,39.0,3.0,-100.00,NNE,23,6.0,12.0,22,0.00,,,0.00,634.000000,,2013-11-30 20:02:00,
2013-11-30 13:42:00,40.0,3.0,-100.00,North,352,6.0,16.0,21,0.00,,,0.00,621.000000,,2013-11-30 20:42:00,
2013-11-30 13:52:00,40.0,3.0,-100.00,North,352,6.0,16.0,21,0.00,,,0.00,621.000000,,2013-11-30 20:52:00,
2013-11-30 14:02:00,40.0,3.0,-100.00,North,352,6.0,16.0,21,0.00,,,0.00,621.000000,,2013-11-30 21:02:00,
2013-11-30 14:43:00,39.0,4.0,-100.00,NNE,17,7.0,15.0,23,0.00,,,0.00,540.000000,,2013-11-30 21:43:00,
2013-11-30 14:53:00,39.0,4.0,-100.00,NNE,17,7.0,15.0,23,0.00,,,0.00,540.000000,,2013-11-30 21:53:00,
2013-11-30 15:03:00,39.0,4.0,-100.00,NNE,17,7.0,15.0,23,0.00,,,0.00,540.000000,,2013-11-30 22:03:00,
2013-11-30 15:42:00,37.0,3.0,-100.00,North,351,5.0,16.0,23,0.00,,,0.00,399.000000,,2013-11-30 22:42:00,
2013-11-30 15:52:00,37.0,3.0,-100.00,North,351,5.0,16.0,23,0.00,,,0.00,399.000000,,2013-11-30 22:52:00,
2013-11-30 16:02:00,37.0,3.0,-100.00,North,351,5.0,16.0,23,0.00,,,0.00,399.000000,,2013-11-30 23:02:00,
2013-11-30 16:42:00,33.0,3.0,-100.00,North,350,4.0,13.0,28,0.00,,,0.00,184.000000,,2013-11-30 23:42:00,
2013-11-30 16:53:00,33.0,3.0,-100.00,North,350,4.0,13.0,28,0.00,,,0.00,184.000000,,2013-11-30 23:53:00,
2013-11-30 17:02:00,33.0,3.0,-100.00,North,350,4.0,13.0,28,0.00,,,0.00,184.000000,,2013-12-01 00:02:00,
2013-11-30 17:42:00,28.0,5.0,-100.00,NW,317,3.0,7.0,36,0.00,,,0.00,8.000000,,2013-12-01 00:42:00,
2013-11-30 17:52:00,28.0,5.0,-100.00,NW,317,3.0,7.0,36,0.00,,,0.00,8.000000,,2013-12-01 00:52:00,
2013-11-30 18:01:00,28.0,5.0,-100.00,NW,317,3.0,7.0,36,0.00,,,0.00,8.000000,,2013-12-01 01:01:00,
2013-11-30 18:42:00,24.0,6.0,-100.00,NNW,342,4.0,6.0,45,0.00,,,0.00,0.000000,,2013-12-01 01:42:00,
2013-11-30 18:52:00,24.0,6.0,-100.00,NNW,342,4.0,6.0,45,0.00,,,0.00,0.000000,,2013-12-01 01:52:00,
2013-11-30 19:01:00,24.0,6.0,-100.00,NNW,342,4.0,6.0,45,0.00,,,0.00,0.000000,,2013-12-01 02:01:00,
2013-11-30 19:42:00,23.0,7.0,-100.00,NW,323,2.0,6.0,50,0.00,,,0.00,0.000000,,2013-12-01 02:42:00,
2013-11-30 19:52:00,23.0,7.0,-100.00,NW,323,2.0,6.0,50,0.00,,,0.00,0.000000,,2013-12-01 02:52:00,
2013-11-30 20:02:00,23.0,7.0,-100.00,NW,323,2.0,6.0,50,0.00,,,0.00,0.000000,,2013-12-01 03:02:00,
2013-11-30 20:44:00,21.0,7.0,-100.00,NW,323,3.0,6.0,55,0.00,,,0.00,0.000000,,2013-12-01 03:44:00,
2013-11-30 20:53:00,21.0,7.0,-100.00,NW,323,3.0,6.0,55,0.00,,,0.00,0.000000,,2013-12-01 03:53:00,
2013-11-30 21:02:00,-999.0,-99.9,-100.00,NW,323,3.0,6.0,-999,0.00,,,0.00,0.000000,,2013-12-01 04:02:00,
2013-11-30 21:42:00,17.0,7.0,-100.00,NNW,334,2.0,8.0,63,0.00,,,0.00,0.000000,,2013-12-01 04:42:00,
2013-11-30 21:52:00,17.0,7.0,-100.00,NNW,334,2.0,8.0,63,0.00,,,0.00,0.000000,,2013-12-01 04:52:00,
2013-11-30 22:02:00,17.0,7.0,-100.00,NNW,334,2.0,8.0,63,0.00,,,0.00,0.000000,,2013-12-01 05:02:00,
2013-11-30 22:43:00,16.0,6.0,-100.00,NW,315,3.0,5.0,65,0.00,,,0.00,0.000000,,2013-12-01 05:43:00,
2013-11-30 22:53:00,16.0,6.0,-100.00,NW,315,3.0,5.0,65,0.00,,,0.00,0.000000,,2013-12-01 05:53:00,
2013-11-30 23:02:00,16.0,6.0,-100.00,NW,315,3.0,5.0,65,0.00,,,0.00,0.000000,,2013-12-01 06:02:00,
2013-11-30 23:42:00,14.0,6.0,-100.00,WSW,247,1.0,7.0,69,0.00,,,0.00,0.000000,,2013-12-01 06:42:00,
2013-11-30 23:52:00,14.0,6.0,-100.00,WSW,247,1.0,7.0,69,0.00,,,0.00,0.000000,,2013-12-01 06:52:00,